Airfield :







YOU CAN JOIN US ON...

 
LOGIN :

Register | Disclaimer

   EN    FR    IT 

 









Legend :    VFR   Marginal VFR   IFR   Intensive IFR   Very Intensive IFR
Visi :
Ceiling :
>= 8 km
>= 3000ft
5 to 8 km
1000 to 3000 ft
1500m to 5 km
500 to 1000 ft
800 to 1500m
200 to 500 ft
< 800m
< 200 ft
Symbols :   Thunderstorms  Fog  Heavy snow  Heavy precipitations  Wind > 20 kt







- Airport Elevation : 9 ft
- IATA code : SJU


TJSJ - Luis Munoz Marin Int.

CURRENT METAR :
  • 211056Z 16003KT 10SM FEW033 SCT085 BKN100 27/24 A2992 RMK AO2 RAB02E14 SLP129 P0000 T02720239

EXPIRED METARs :
  • 210956Z 00000KT 10SM FEW022 FEW031 SCT080 27/24 A2990 RMK AO2 SLP124 T02720239
  • 210856Z 21003KT 10SM FEW041 FEW070 28/24 A2990 RMK AO2 SLP123 T02780239 55004

TAF TJSJ
Valid from the 21 at 06:00 until the 22 at 06:00 UTC


210540Z 2106/2206 VRB04KT P6SM FEW040
FM211600 06010KT P6SM SCT030 SCT060
FM212200 VRB05KT P6SM FEW035 SCT050
No reported NOTAMs for that airfield.



MET'MAP, your aeronautical weather chart ! - Copyright ORBIFLY December 2007 - Disclaimer

ORBIFLY MET'MAP TEAM :

Programming & Development : Alexandra Zaïnal
Concept & Development : Baudouin d'Aumeries
Co-Development & Prog : Marc-Olivier Méhu
Technical & hardware support : Manuel Goepfert

Contact : metmap@orbifly.com




SOURCES & CREDITS :

   NOAA